Time;durP1;ratioP1;P1;durP2;ratioP2;P2;SDS_P1;SDS_P2;PMS_P1;PMS_P2;Temp;Humidity;BMP_temperature;BMP_pressure;BME280_temperature;BME280_humidity;BME280_pressure;Samples;Min_cycle;Max_cycle;Signal;HPM_P1;HPM_P2
2021/01/29 00:00:51;;;;;;;2.38;1.10;;;;;;;27.70;28.83;95436.97;4952516;28;20509;-38
2021/01/29 00:03:17;;;;;;;1.80;1.10;;;;;;;27.70;28.76;95433.47;4964888;28;20053;-35
2021/01/29 00:05:53;;;;;;;2.20;0.93;;;;;;;27.70;28.68;95422.94;4962006;28;20136;-36
2021/01/29 00:08:19;;;;;;;2.80;1.10;;;;;;;27.69;28.77;95421.28;4961713;28;20566;-38
2021/01/29 00:10:44;;;;;;;2.97;1.35;;;;;;;27.69;28.64;95406.31;4959953;28;20046;-37
2021/01/29 00:13:12;;;;;;;1.45;0.73;;;;;;;27.69;28.70;95406.31;4975072;28;20105;-36
2021/01/29 00:15:38;;;;;;;1.80;0.93;;;;;;;27.70;28.54;95401.91;4960227;28;20034;-39
2021/01/29 00:18:03;;;;;;;1.40;0.90;;;;;;;27.71;28.45;95382.50;4968514;28;20038;-38
2021/01/29 00:20:29;;;;;;;1.35;0.80;;;;;;;27.70;28.66;95379.06;4955859;28;20058;-38
2021/01/29 00:22:56;;;;;;;1.77;0.80;;;;;;;27.69;28.82;95379.19;4966683;28;20079;-36
2021/01/29 00:25:24;;;;;;;2.05;1.10;;;;;;;27.69;28.50;95366.03;4965816;28;20712;-39
2021/01/29 00:27:49;;;;;;;3.90;1.15;;;;;;;27.69;28.61;95373.91;4955919;28;20053;-34
2021/01/29 00:30:16;;;;;;;2.05;0.95;;;;;;;27.69;28.56;95360.75;4953908;28;20046;-36
2021/01/29 00:32:42;;;;;;;1.33;0.70;;;;;;;27.70;28.77;95375.56;4964569;28;20034;-35
2021/01/29 00:35:08;;;;;;;1.60;0.95;;;;;;;27.70;28.78;95378.22;4959917;28;20114;-34
2021/01/29 00:37:34;;;;;;;1.60;0.80;;;;;;;27.71;28.72;95382.50;4957607;28;20073;-39
2021/01/29 00:39:59;;;;;;;1.08;0.75;;;;;;;27.64;28.60;95372.50;4957715;28;20043;-36
2021/01/29 00:42:25;;;;;;;2.50;0.95;;;;;;;27.68;28.70;95375.69;4951756;28;20038;-35
2021/01/29 00:44:51;;;;;;;1.27;1.08;;;;;;;27.68;28.78;95378.34;4957109;28;20057;-37
2021/01/29 00:47:16;;;;;;;1.33;0.88;;;;;;;27.68;28.39;95367.00;4956275;28;20038;-37
2021/01/29 00:49:43;;;;;;;1.48;0.80;;;;;;;27.69;28.86;95352.88;4950567;28;20043;-39
2021/01/29 00:52:08;;;;;;;0.55;0.50;;;;;;;27.68;28.82;95354.66;4952979;28;20051;-38
2021/01/29 00:54:33;;;;;;;1.88;1.10;;;;;;;27.68;28.52;95346.75;4956505;28;20100;-36
2021/01/29 00:56:59;;;;;;;1.38;0.85;;;;;;;27.68;28.58;95340.69;4968003;28;20042;-38
2021/01/29 00:59:25;;;;;;;1.42;0.88;;;;;;;27.68;28.60;95340.69;4957629;28;20090;-37
2021/01/29 01:01:51;;;;;;;2.40;1.00;;;;;;;27.67;28.57;95328.47;4957373;28;20031;-39
2021/01/29 01:04:17;;;;;;;1.25;0.80;;;;;;;27.68;28.78;95330.16;4953715;28;20047;-39
2021/01/29 01:06:42;;;;;;;1.83;0.70;;;;;;;27.67;28.68;95328.47;4960722;28;20047;-37
2021/01/29 01:09:08;;;;;;;1.77;0.70;;;;;;;27.64;28.77;95319.88;4959800;28;20153;-36
2021/01/29 01:11:33;;;;;;;2.95;0.90;;;;;;;27.63;28.70;95318.22;4959024;28;20558;-35
2021/01/29 01:14:00;;;;;;;1.02;0.55;;;;;;;27.63;28.86;95307.69;4969934;28;20034;-37
2021/01/29 01:16:27;;;;;;;1.13;0.80;;;;;;;27.63;28.52;95302.41;4969628;28;20039;-39
2021/01/29 01:18:52;;;;;;;1.25;0.77;;;;;;;27.64;28.71;95297.97;4955180;28;20039;-39
2021/01/29 01:21:19;;;;;;;3.75;0.90;;;;;;;27.63;28.49;95291.91;4962345;28;20039;-38
2021/01/29 01:23:45;;;;;;;1.17;0.70;;;;;;;27.62;28.69;95281.50;4963659;28;20042;-35
2021/01/29 01:26:11;;;;;;;2.28;0.90;;;;;;;27.61;28.81;95283.28;4964516;28;20241;-37
2021/01/29 01:28:36;;;;;;;1.52;0.63;;;;;;;27.60;28.79;95276.31;4968650;28;20042;-38
2021/01/29 01:31:02;;;;;;;1.52;0.80;;;;;;;27.59;28.60;95268.56;4952893;28;20054;-37
2021/01/29 01:33:27;;;;;;;0.88;0.65;;;;;;;27.59;28.79;95264.13;4962411;28;20038;-36
2021/01/29 01:35:53;;;;;;;3.22;0.80;;;;;;;27.59;28.90;95248.34;4976974;28;20037;-37
2021/01/29 01:38:19;;;;;;;1.60;0.77;;;;;;;27.58;28.83;95246.66;4967081;28;20518;-37
2021/01/29 01:40:46;;;;;;;1.33;0.70;;;;;;;27.58;28.63;95244.03;4959438;28;20043;-38
2021/01/29 01:43:11;;;;;;;1.25;0.70;;;;;;;27.58;28.71;95244.03;4978990;28;20042;-37
2021/01/29 01:45:57;;;;;;;1.25;0.60;;;;;;;27.58;28.67;95244.03;4955301;28;21325;-40
2021/01/29 01:48:34;;;;;;;1.25;0.50;;;;;;;27.59;28.88;95243.09;4952660;28;20042;-38
2021/01/29 01:50:59;;;;;;;1.38;0.50;;;;;;;27.59;28.75;95229.09;4988624;28;20654;-39
2021/01/29 01:53:31;;;;;;;0.95;0.60;;;;;;;27.58;28.70;95230.88;4960995;28;20031;-38
2021/01/29 01:56:18;;;;;;;1.30;0.63;;;;;;;27.58;28.59;95230.88;4952980;28;20069;-37
2021/01/29 01:58:47;;;;;;;1.25;0.82;;;;;;;27.57;28.72;95226.59;4952844;28;20043;-37
2021/01/29 02:01:13;;;;;;;1.13;0.60;;;;;;;27.55;28.81;95210.09;4939772;28;20482;-40
2021/01/29 02:03:38;;;;;;;0.63;0.50;;;;;;;27.54;28.79;95203.19;4959334;28;20042;-40
2021/01/29 02:06:04;;;;;;;1.33;0.60;;;;;;;27.55;28.75;95198.75;4978904;28;20078;-38
2021/01/29 02:08:30;;;;;;;4.38;0.70;;;;;;;27.56;28.67;95206.50;4965319;28;20512;-37
2021/01/29 02:10:56;;;;;;;1.23;0.60;;;;;;;27.55;28.71;95198.75;4992796;28;20054;-40
2021/01/29 02:13:22;;;;;;;0.52;0.40;;;;;;;27.56;28.73;95206.50;4964840;28;20047;-35
2021/01/29 02:15:49;;;;;;;1.25;0.50;;;;;;;27.55;28.75;95190.84;4959488;28;20038;-37
2021/01/29 02:18:43;;;;;;;1.83;0.63;;;;;;;27.54;28.78;95182.13;4970768;28;20039;-38
2021/01/29 02:21:20;;;;;;;1.23;0.50;;;;;;;27.54;28.70;95182.13;4971896;28;20210;-35
2021/01/29 02:24:25;;;;;;;1.25;0.70;;;;;;;27.54;28.73;95176.88;4967834;28;20616;-36
2021/01/29 02:27:12;;;;;;;0.80;0.57;;;;;;;27.52;28.73;95173.53;4972002;28;20129;-39
2021/01/29 02:30:08;;;;;;;1.35;0.63;;;;;;;27.53;28.61;95159.41;4961513;28;20826;-40
2021/01/29 02:33:11;;;;;;;0.75;0.32;;;;;;;27.53;28.71;95151.50;4958929;28;20039;-38
2021/01/29 02:35:42;;;;;;;1.75;0.60;;;;;;;27.53;28.69;95154.13;4975351;28;20443;-38
2021/01/29 02:38:22;;;;;;;0.95;0.60;;;;;;;27.51;28.78;95146.38;4964379;28;20034;-39
2021/01/29 02:40:59;;;;;;;1.42;0.55;;;;;;;27.52;28.78;95139.31;4961152;28;20037;-36
2021/01/29 02:43:39;;;;;;;1.42;0.50;;;;;;;27.51;28.62;95135.03;4962340;28;20105;-37
2021/01/29 02:46:25;;;;;;;0.70;0.40;;;;;;;27.51;28.66;95124.50;4983779;28;20042;-36
2021/01/29 02:49:02;;;;;;;0.80;0.47;;;;;;;27.52;28.77;95113.00;4959912;28;20488;-39
2021/01/29 02:51:51;;;;;;;3.80;0.52;;;;;;;27.52;28.62;95105.13;4965380;28;20046;-36
2021/01/29 02:54:19;;;;;;;1.30;0.50;;;;;;;27.51;28.62;95108.72;4959223;28;20725;-39
2021/01/29 02:56:55;;;;;;;0.40;0.30;;;;;;;27.51;28.75;95098.19;4968926;28;20074;-37
2021/01/29 02:59:45;;;;;;;1.25;0.60;;;;;;;27.50;28.71;95105.25;4966104;28;20023;-40
2021/01/29 03:02:14;;;;;;;0.77;0.30;;;;;;;27.51;28.75;95114.00;4955334;28;20042;-37
2021/01/29 03:04:52;;;;;;;1.80;0.60;;;;;;;27.49;28.79;95102.75;4961353;28;20058;-33
2021/01/29 03:07:21;;;;;;;0.30;0.30;;;;;;;27.47;28.56;95099.44;4948975;28;20034;-38
2021/01/29 03:09:52;;;;;;;0.70;0.40;;;;;;;27.49;28.72;95105.38;4957672;28;20157;-36
2021/01/29 03:12:48;;;;;;;0.68;0.40;;;;;;;27.50;28.75;95096.53;4949976;28;20038;-33
2021/01/29 03:15:20;;;;;;;0.63;0.38;;;;;;;27.50;28.53;95096.53;4961488;28;20046;-39
2021/01/29 03:17:55;;;;;;;;;;;;;;;27.50;28.52;95102.63;4989343;28;20065;-39
2021/01/29 03:20:26;;;;;;;0.82;0.30;;;;;;;27.46;28.80;95088.06;4962386;28;20013;-38
2021/01/29 03:23:13;;;;;;;1.48;0.52;;;;;;;27.48;28.75;95087.94;4963394;28;20043;-39
2021/01/29 03:25:42;;;;;;;1.02;0.38;;;;;;;27.47;28.77;95081.03;4950586;28;20862;-35
2021/01/29 03:28:13;;;;;;;0.85;0.40;;;;;;;27.46;28.79;95085.44;4994502;28;20035;-39
2021/01/29 03:30:40;;;;;;;0.85;0.40;;;;;;;27.47;28.74;95081.03;4990757;28;20389;-34
2021/01/29 03:33:06;;;;;;;2.40;0.63;;;;;;;27.46;28.77;95074.09;4939408;28;20034;-40
2021/01/29 03:35:40;;;;;;;1.48;0.57;;;;;;;27.46;28.78;95068.84;4961697;28;20516;-38
2021/01/29 03:38:18;;;;;;;0.60;0.50;;;;;;;27.46;28.80;95068.84;4956040;28;20130;-39
2021/01/29 03:40:45;;;;;;;1.38;0.30;;;;;;;27.46;28.88;95063.56;4946694;28;20050;-38
2021/01/29 03:43:48;;;;;;;0.70;0.43;;;;;;;27.45;28.82;95052.22;4955579;28;20138;-35
2021/01/29 03:46:16;;;;;;;1.48;0.50;;;;;;;27.45;28.77;95057.47;4955082;28;20077;-45
2021/01/29 03:49:14;;;;;;;0.82;0.43;;;;;;;27.46;28.80;95045.97;4961277;28;20537;-35
2021/01/29 03:51:48;;;;;;;0.35;0.25;;;;;;;27.45;28.78;95038.22;4950550;28;20147;-37
2021/01/29 03:54:20;;;;;;;0.65;0.50;;;;;;;27.45;28.83;95038.22;4968280;28;20109;-34
2021/01/29 03:56:52;;;;;;;0.60;0.40;;;;;;;27.45;28.77;95035.59;4969519;28;20046;-38
2021/01/29 03:59:28;;;;;;;1.17;0.30;;;;;;;27.45;28.70;95023.28;4958999;28;20066;-37
2021/01/29 04:02:28;;;;;;;1.35;0.40;;;;;;;27.44;28.81;95021.63;4950881;28;20094;-39
2021/01/29 04:05:13;;;;;;;0.63;0.40;;;;;;;27.44;28.78;95013.72;4954256;28;20111;-40
2021/01/29 04:07:51;;;;;;;0.40;0.20;;;;;;;27.45;28.82;95014.53;4952157;28;20054;-38
2021/01/29 04:10:19;;;;;;;0.70;0.45;;;;;;;27.44;28.81;95003.19;4954314;28;20046;-37
2021/01/29 04:13:21;;;;;;;0.40;0.40;;;;;;;27.45;28.78;95004.00;4964508;28;20050;-37
2021/01/29 04:15:50;;;;;;;0.40;0.30;;;;;;;27.45;28.86;94993.50;4952000;28;20042;-38
2021/01/29 04:18:26;;;;;;;0.88;0.45;;;;;;;27.45;28.86;94982.97;4965036;28;20042;-35
2021/01/29 04:21:15;;;;;;;0.22;0.22;;;;;;;27.45;28.66;94980.34;4969014;28;20043;-34
2021/01/29 04:23:57;;;;;;;0.75;0.40;;;;;;;27.44;28.75;94962.91;4964908;28;20057;-38
2021/01/29 04:26:23;;;;;;;0.38;0.20;;;;;;;27.43;28.71;94956.00;4959901;28;20074;-37
2021/01/29 04:29:16;;;;;;;0.55;0.50;;;;;;;27.43;28.71;94948.09;4941652;28;20035;-36
2021/01/29 04:31:42;;;;;;;0.30;0.30;;;;;;;27.42;28.76;94936.72;4950607;28;20042;-37
2021/01/29 04:34:21;;;;;;;0.65;0.45;;;;;;;27.42;28.63;94925.41;5000878;28;20583;-40
2021/01/29 04:36:47;;;;;;;0.43;0.40;;;;;;;27.42;28.66;94920.13;4946848;28;20058;-38
2021/01/29 04:39:42;;;;;;;0.52;0.20;;;;;;;27.42;28.61;94913.06;4955613;28;20469;-38
2021/01/29 04:42:25;;;;;;;1.38;0.30;;;;;;;27.41;28.59;94913.22;4956430;28;20401;-38
2021/01/29 04:45:08;;;;;;;0.70;0.30;;;;;;;27.40;28.75;94907.13;4963649;28;20038;-38
2021/01/29 04:47:45;;;;;;;0.57;0.20;;;;;;;27.41;28.69;94905.34;4975530;28;20145;-40
2021/01/29 04:50:17;;;;;;;1.23;0.40;;;;;;;27.42;28.62;94893.84;4963485;28;20556;-37
2021/01/29 04:53:13;;;;;;;1.10;0.40;;;;;;;27.41;28.73;94887.72;4957516;28;20090;-37
2021/01/29 04:56:03;;;;;;;0.47;0.35;;;;;;;27.41;28.63;94877.22;4965504;28;20069;-35
2021/01/29 04:58:28;;;;;;;0.52;0.40;;;;;;;27.38;28.70;94878.31;4971101;28;20080;-39
2021/01/29 05:01:34;;;;;;;0.57;0.30;;;;;;;27.39;28.71;94866.81;4957786;28;20038;-36
2021/01/29 05:04:37;;;;;;;0.70;0.30;;;;;;;27.38;28.65;94867.78;4963023;28;20037;-38
2021/01/29 05:07:08;;;;;;;0.20;0.20;;;;;;;27.38;28.47;94870.44;4955491;28;20070;-39
2021/01/29 05:10:07;;;;;;;0.47;0.20;;;;;;;27.37;28.55;94850.38;4968053;28;20031;-40
2021/01/29 05:13:05;;;;;;;0.50;0.22;;;;;;;27.37;28.79;94853.00;4954916;28;20035;-34
2021/01/29 05:15:53;;;;;;;0.60;0.30;;;;;;;27.37;28.63;94854.78;4940816;28;20713;-37
2021/01/29 05:18:44;;;;;;;0.40;0.22;;;;;;;27.35;28.68;94857.53;4994582;28;20113;-35
2021/01/29 05:21:19;;;;;;;0.20;0.20;;;;;;;27.36;28.59;94848.72;4954051;28;20027;-39
2021/01/29 05:24:18;;;;;;;1.85;0.25;;;;;;;27.36;28.80;94838.19;4962191;28;20037;-41
2021/01/29 05:27:05;;;;;;;0.30;0.15;;;;;;;27.36;28.67;94843.44;4953183;28;20026;-37
2021/01/29 05:29:49;;;;;;;0.35;0.32;;;;;;;27.36;28.54;94832.94;5003739;28;20035;-38
2021/01/29 05:32:17;;;;;;;0.40;0.20;;;;;;;27.35;28.76;94828.63;4972103;28;20050;-36
2021/01/29 05:34:52;;;;;;;0.57;0.30;;;;;;;27.35;28.65;94820.72;4966828;28;20073;-36
2021/01/29 05:37:53;;;;;;;0.40;0.20;;;;;;;27.36;28.70;94817.16;4959621;28;20529;-40
2021/01/29 05:40:52;;;;;;;0.30;0.20;;;;;;;27.35;28.63;94804.94;4955958;28;20055;-37
2021/01/29 05:44:00;;;;;;;0.70;0.20;;;;;;;27.36;28.83;94801.38;4956583;28;20034;-38
2021/01/29 05:46:40;;;;;;;0.32;0.20;;;;;;;27.34;28.75;94798.03;4963119;28;20042;-37
2021/01/29 05:49:21;;;;;;;0.70;0.30;;;;;;;27.34;28.64;94798.03;4966712;28;20034;-35
2021/01/29 05:52:08;;;;;;;0.65;0.35;;;;;;;27.34;28.58;94776.19;4947750;28;20053;-35
2021/01/29 05:55:00;;;;;;;0.85;0.30;;;;;;;27.33;28.67;94770.06;4950154;28;20046;-35
2021/01/29 05:57:47;;;;;;;0.95;0.40;;;;;;;27.32;28.56;94763.16;4992591;28;20049;-37
2021/01/29 06:00:31;;;;;;;0.30;0.30;;;;;;;27.34;28.72;94800.66;4958940;28;20512;-38
2021/01/29 06:03:06;;;;;;;0.45;0.30;;;;;;;27.32;28.77;94802.63;4969506;28;20419;-39
2021/01/29 06:05:47;;;;;;;0.30;0.17;;;;;;;27.35;28.62;94814.66;4990707;28;20039;-36
2021/01/29 06:08:38;;;;;;;0.88;0.30;;;;;;;27.34;28.72;94805.09;4956408;28;20035;-39
2021/01/29 06:11:25;;;;;;;0.30;0.20;;;;;;;27.33;28.77;94814.78;4965668;28;20023;-36
2021/01/29 06:14:12;;;;;;;0.47;0.25;;;;;;;27.33;28.62;94827.09;4953348;28;20049;-38
2021/01/29 06:17:02;;;;;;;0.47;0.30;;;;;;;27.33;28.61;94824.47;4963595;28;20415;-37
2021/01/29 06:19:27;;;;;;;0.22;0.20;;;;;;;27.31;28.69;94856.16;4972055;28;20126;-37
2021/01/29 06:21:58;;;;;;;0.57;0.20;;;;;;;27.31;28.74;94855.34;4967942;28;20113;-38
2021/01/29 06:24:26;;;;;;;0.32;0.10;;;;;;;27.33;28.76;94870.03;4958949;28;20035;-35
2021/01/29 06:27:21;;;;;;;0.32;0.15;;;;;;;27.33;28.52;94877.91;4964896;28;20053;-39
2021/01/29 06:29:57;;;;;;;1.65;0.25;;;;;;;27.32;28.61;94873.63;4985377;28;20108;-37
2021/01/29 06:32:28;;;;;;;0.82;0.30;;;;;;;27.31;28.69;94866.69;4953441;28;20062;-37
2021/01/29 06:34:53;;;;;;;2.17;0.50;;;;;;;27.30;28.59;94859.75;4957098;28;20038;-36
2021/01/29 06:37:26;;;;;;;0.30;0.30;;;;;;;27.30;28.52;94848.44;4965972;28;20440;-37
2021/01/29 06:40:10;;;;;;;0.98;0.30;;;;;;;27.28;28.56;94861.72;4982876;28;20493;-38
2021/01/29 06:43:04;;;;;;;0.45;0.40;;;;;;;27.27;28.59;94857.44;4948724;28;20046;-42
2021/01/29 06:45:49;;;;;;;1.27;0.30;;;;;;;27.26;28.48;94853.13;4955913;28;20041;-37
2021/01/29 06:48:35;;;;;;;0.52;0.32;;;;;;;27.25;28.59;94857.56;4967373;28;20038;-35
2021/01/29 06:51:12;;;;;;;0.30;0.25;;;;;;;27.25;28.52;94861.97;4950356;28;20071;-34
2021/01/29 06:54:05;;;;;;;0.98;0.50;;;;;;;27.25;28.46;94885.66;4994336;28;20625;-38
2021/01/29 06:56:40;;;;;;;1.63;0.40;;;;;;;27.24;28.47;94878.72;4965087;28;20045;-39
2021/01/29 06:59:07;;;;;;;1.00;0.40;;;;;;;27.23;28.42;94884.97;4955864;28;20038;-36
2021/01/29 07:01:33;;;;;;;1.60;0.40;;;;;;;27.24;28.57;94891.88;4955567;28;20047;-40
2021/01/29 07:04:29;;;;;;;0.77;0.47;;;;;;;27.24;28.35;94876.09;4970932;28;20042;-39
2021/01/29 07:07:19;;;;;;;0.47;0.32;;;;;;;27.22;28.56;94878.03;4962596;28;20050;-39
2021/01/29 07:09:59;;;;;;;4.30;0.63;;;;;;;27.23;27.98;94875.25;4954508;28;20038;-37
2021/01/29 07:12:55;;;;;;;8.98;0.60;;;;;;;27.25;27.69;94877.75;4962503;28;20042;-35
2021/01/29 07:16:00;;;;;;;4.43;0.47;;;;;;;27.23;27.76;94898.94;4938347;28;20030;-40
2021/01/29 07:18:41;;;;;;;8.73;0.45;;;;;;;27.23;28.48;94895.50;4952237;28;20106;-38
2021/01/29 07:21:41;;;;;;;5.78;0.55;;;;;;;27.25;28.18;94894.38;4959588;28;22051;-38
2021/01/29 07:24:12;;;;;;;4.00;0.35;;;;;;;27.23;28.14;94879.72;4973558;28;20031;-35
2021/01/29 07:27:16;;;;;;;11.30;0.60;;;;;;;27.25;28.43;94889.13;4958828;28;20042;-37
2021/01/29 07:30:11;;;;;;;9.18;0.60;;;;;;;27.25;28.23;94888.28;4948421;28;20039;-37
2021/01/29 07:32:47;;;;;;;2.95;0.50;;;;;;;27.25;28.49;94907.53;4970918;28;20105;-39
2021/01/29 07:35:27;;;;;;;7.22;0.50;;;;;;;27.19;28.53;94920.38;4963653;28;20042;-41
2021/01/29 07:38:25;;;;;;;1.50;0.50;;;;;;;27.18;28.59;94895.03;4965380;28;20060;-38
2021/01/29 07:41:35;;;;;;;2.65;0.40;;;;;;;27.17;28.52;94912.63;4954257;28;20158;-37
2021/01/29 07:44:25;;;;;;;2.22;0.50;;;;;;;27.17;28.72;94906.53;4973426;28;20700;-35
2021/01/29 07:47:06;;;;;;;3.85;0.90;;;;;;;27.17;28.70;94917.06;4977344;28;20045;-38
2021/01/29 07:49:38;;;;;;;3.47;0.63;;;;;;;27.17;28.54;94911.78;4960608;28;20118;-37
2021/01/29 07:52:16;;;;;;;5.00;0.90;;;;;;;27.18;28.77;94918.72;4959038;28;20625;-40
2021/01/29 07:54:49;;;;;;;2.53;0.70;;;;;;;27.20;28.43;94916.78;4972366;28;20086;-40
2021/01/29 07:57:36;;;;;;;10.98;1.35;;;;;;;27.19;28.62;94915.13;4959949;28;20635;-38
2021/01/29 08:00:14;;;;;;;8.23;1.90;;;;;;;27.20;28.40;94922.88;4955315;28;20042;-38
2021/01/29 08:03:17;;;;;;;7.97;2.13;;;;;;;27.22;28.71;94914.84;4958882;28;20165;-37
2021/01/29 08:05:42;;;;;;;7.90;2.50;;;;;;;27.16;28.44;94915.41;4970396;28;20891;-34
2021/01/29 08:08:15;;;;;;;13.25;3.03;;;;;;;27.22;28.58;94927.97;4960294;28;20070;-36
2021/01/29 08:10:43;;;;;;;18.50;3.13;;;;;;;27.23;28.29;94927.03;4973088;28;20130;-33
2021/01/29 08:13:27;;;;;;;7.38;2.63;;;;;;;27.23;28.64;94937.56;4941924;28;20043;-37
2021/01/29 08:16:01;;;;;;;14.40;2.60;;;;;;;27.23;28.52;94927.03;4959779;28;20038;-41
2021/01/29 08:18:31;;;;;;;15.68;2.47;;;;;;;27.24;28.17;94918.19;4956133;28;20660;-43
2021/01/29 08:21:19;;;;;;;5.90;2.50;;;;;;;27.26;28.12;94929.38;4960210;28;20038;-39
2021/01/29 08:24:31;;;;;;;9.75;2.45;;;;;;;27.26;28.23;94921.50;4957363;28;20039;-35
2021/01/29 08:27:06;;;;;;;8.68;2.28;;;;;;;27.23;28.44;94927.84;4949489;28;20125;-39
2021/01/29 08:29:52;;;;;;;5.15;1.90;;;;;;;27.23;28.44;94933.13;4958832;28;20747;-37
2021/01/29 08:32:24;;;;;;;5.43;1.98;;;;;;;27.23;28.34;94932.31;4963445;28;20113;-37
2021/01/29 08:34:58;;;;;;;5.05;1.98;;;;;;;27.22;28.15;94920.94;4955695;28;20477;-35
2021/01/29 08:37:35;;;;;;;6.32;2.33;;;;;;;27.23;28.39;94938.38;4962216;28;20027;-35
2021/01/29 08:40:22;;;;;;;4.97;1.90;;;;;;;27.23;28.53;94950.72;4961381;28;20027;-36
2021/01/29 08:42:58;;;;;;;7.45;2.42;;;;;;;27.24;28.00;94950.53;4962548;28;20035;-36
2021/01/29 08:45:26;;;;;;;10.57;1.70;;;;;;;27.27;26.29;94954.72;4961444;28;20945;-36
2021/01/29 08:48:29;;;;;;;4.32;0.85;;;;;;;27.01;22.66;94957.84;4964119;28;20041;-39
2021/01/29 08:51:08;;;;;;;2.10;0.47;;;;;;;26.76;22.45;94967.81;4953960;28;20165;-38
2021/01/29 08:53:47;;;;;;;3.40;0.43;;;;;;;26.52;23.11;94976.00;4965520;28;20026;-38
2021/01/29 08:56:28;;;;;;;1.17;0.40;;;;;;;26.35;23.54;94984.34;4960243;28;20046;-35
2021/01/29 08:59:01;;;;;;;1.27;0.30;;;;;;;26.29;24.30;94987.50;4961391;28;20528;-38
2021/01/29 09:01:35;;;;;;;3.72;0.50;;;;;;;26.28;24.91;94987.63;4953113;28;20042;-36
2021/01/29 09:04:22;;;;;;;1.70;0.40;;;;;;;26.27;25.21;94994.66;4962489;28;20114;-36
2021/01/29 09:06:48;;;;;;;1.23;0.38;;;;;;;26.28;25.37;95001.56;4963917;28;20114;-37
2021/01/29 09:09:21;;;;;;;1.20;0.52;;;;;;;26.32;25.69;95012.66;4956472;28;20058;-41
2021/01/29 09:11:49;;;;;;;1.30;0.30;;;;;;;26.36;26.00;95003.56;4955781;28;20042;-40
2021/01/29 09:14:27;;;;;;;2.13;0.50;;;;;;;26.43;26.06;95009.16;4957224;28;20962;-35
2021/01/29 09:16:58;;;;;;;0.90;0.50;;;;;;;26.43;26.29;95004.72;4963079;28;20089;-39
2021/01/29 09:19:24;;;;;;;2.13;0.43;;;;;;;26.46;26.40;94991.31;4950733;28;20682;-37
2021/01/29 09:22:13;;;;;;;3.97;0.40;;;;;;;26.50;26.49;94989.25;4954876;28;20038;-37
2021/01/29 09:24:47;;;;;;;1.10;0.50;;;;;;;26.55;26.63;94987.06;4963669;28;20019;-36
2021/01/29 09:27:34;;;;;;;2.05;0.57;;;;;;;26.58;26.77;94993.88;4956561;28;20047;-37
2021/01/29 09:30:11;;;;;;;1.95;0.50;;;;;;;26.61;26.89;95007.59;4960637;28;20026;-39
2021/01/29 09:32:45;;;;;;;1.35;0.52;;;;;;;26.57;26.83;95015.84;4961150;28;20050;-36
2021/01/29 09:35:14;;;;;;;5.15;0.50;;;;;;;26.47;27.07;95021.88;4956446;28;20110;-37
2021/01/29 09:37:47;;;;;;;1.45;0.47;;;;;;;26.40;27.51;95027.78;4946442;28;20505;-35
2021/01/29 09:40:16;;;;;;;2.25;0.40;;;;;;;26.34;27.49;95032.59;4968431;28;21015;-36
2021/01/29 09:42:47;;;;;;;3.05;0.40;;;;;;;26.35;27.61;95042.13;4956897;28;20398;-36
2021/01/29 09:45:18;;;;;;;1.33;0.40;;;;;;;26.41;27.58;95034.69;4963399;28;20137;-35
2021/01/29 09:47:45;;;;;;;1.15;0.45;;;;;;;26.50;27.48;95036.53;4960899;28;20522;-31
2021/01/29 09:50:17;;;;;;;1.95;0.70;;;;;;;26.60;27.34;95047.97;4941065;28;20042;-35
2021/01/29 09:53:03;;;;;;;8.27;0.60;;;;;;;26.75;27.21;95045.00;4962398;28;20041;-34
2021/01/29 09:55:37;;;;;;;3.25;0.45;;;;;;;26.85;27.08;95056.38;4969992;28;20665;-41
2021/01/29 09:58:17;;;;;;;3.15;0.52;;;;;;;26.92;27.18;95051.44;4966341;28;20051;-33
2021/01/29 10:00:44;;;;;;;1.40;0.50;;;;;;;26.98;26.77;95052.75;4967092;28;20038;-39
2021/01/29 10:03:25;;;;;;;5.30;0.50;;;;;;;27.07;26.68;95059.84;4947413;28;20051;-35
2021/01/29 10:06:17;;;;;;;;;;;;;;;27.11;26.89;95063.88;4962818;28;20647;-34
2021/01/29 10:08:45;;;;;;;4.35;0.73;;;;;;;27.20;26.88;95058.78;4970705;28;20033;-35
2021/01/29 10:11:19;;;;;;;2.88;0.63;;;;;;;27.29;27.13;95071.13;4935254;28;20133;-36
2021/01/29 10:14:18;;;;;;;10.40;0.50;;;;;;;27.38;27.00;95075.59;4970880;28;20026;-35
2021/01/29 10:16:55;;;;;;;12.40;0.90;;;;;;;27.47;26.68;95063.44;4973878;28;20093;-34
2021/01/29 10:19:23;;;;;;;0.90;0.43;;;;;;;27.56;26.73;95064.41;4952988;28;20060;-35
2021/01/29 10:22:02;;;;;;;0.45;0.30;;;;;;;27.57;26.87;95066.09;4961601;28;20039;-29
2021/01/29 10:24:39;;;;;;;6.65;0.50;;;;;;;27.60;26.64;95038.66;4953496;28;20396;-35
2021/01/29 10:27:19;;;;;;;2.80;0.70;;;;;;;27.60;26.69;95051.81;4973174;28;20037;-36
2021/01/29 10:29:46;;;;;;;3.38;0.50;;;;;;;27.59;26.75;95037.84;4973200;28;20026;-34
2021/01/29 10:32:17;;;;;;;2.17;0.50;;;;;;;27.59;26.92;95048.38;4969869;28;20130;-33
2021/01/29 10:34:54;;;;;;;0.88;0.30;;;;;;;27.60;26.85;95059.72;4968712;28;20035;-35
2021/01/29 10:37:25;;;;;;;5.47;0.40;;;;;;;27.60;26.98;95055.28;4964628;28;20523;-31
2021/01/29 10:40:16;;;;;;;1.63;0.60;;;;;;;27.60;26.99;95060.56;4965336;28;20045;-32
2021/01/29 10:43:06;;;;;;;4.80;0.60;;;;;;;27.61;27.21;95041.19;4958408;28;20030;-34
2021/01/29 10:45:41;;;;;;;1.48;0.60;;;;;;;27.61;26.90;95043.81;4967452;28;20043;-36
2021/01/29 12:27:24;;;;;;;6.95;0.65;;;;;;;22.22;39.89;95061.78;5067242;27;20360;-27
2021/01/29 12:30:07;;;;;;;2.92;0.50;;;;;;;22.63;38.75;95060.00;5023433;28;20642;-29
2021/01/29 12:32:46;;;;;;;2.85;0.80;;;;;;;23.01;37.86;95057.47;5049623;28;20040;-29
2021/01/29 12:35:21;;;;;;;1.58;0.60;;;;;;;23.39;36.81;95060.97;5053065;28;20021;-32
2021/01/29 12:38:11;;;;;;;2.35;0.60;;;;;;;23.78;35.76;95040.75;5064034;28;20565;-28
2021/01/29 12:40:46;;;;;;;1.67;0.50;;;;;;;24.12;35.03;95045.34;5062065;28;20037;-28
2021/01/29 12:43:20;;;;;;;1.58;0.63;;;;;;;24.43;34.69;95065.75;5053595;28;20052;-31
2021/01/29 12:46:17;;;;;;;2.72;0.60;;;;;;;24.68;34.03;95064.75;5064032;28;20047;-29
2021/01/29 12:49:00;;;;;;;4.53;0.70;;;;;;;24.96;33.42;95062.66;5056223;28;20044;-30
2021/01/29 12:51:35;;;;;;;2.13;0.60;;;;;;;25.19;32.97;95065.28;5058704;28;20035;-29
2021/01/29 12:54:22;;;;;;;1.48;0.70;;;;;;;25.36;32.75;95063.97;5042186;28;20481;-31
2021/01/29 12:56:54;;;;;;;1.75;0.57;;;;;;;25.51;32.46;95061.91;5055610;28;20102;-29
2021/01/29 12:59:44;;;;;;;3.47;0.70;;;;;;;25.67;32.23;95072.03;5056867;28;20033;-30
2021/01/29 13:02:44;;;;;;;2.20;0.60;;;;;;;25.80;31.80;95074.53;5054555;28;20128;-27
2021/01/29 13:05:23;;;;;;;2.75;0.65;;;;;;;25.96;31.52;95057.53;5004178;28;20482;-28
2021/01/29 13:08:17;;;;;;;1.52;0.50;;;;;;;26.08;31.23;95064.41;5072548;28;20470;-30
2021/01/29 13:10:46;;;;;;;6.72;0.80;;;;;;;26.19;30.97;95063.53;5056750;28;20017;-31
2021/01/29 13:13:52;;;;;;;2.67;0.50;;;;;;;26.34;30.76;95074.59;5050729;28;20017;-28
2021/01/29 13:16:26;;;;;;;5.57;0.60;;;;;;;26.46;30.31;95062.25;5052367;28;20577;-28
2021/01/29 13:19:02;;;;;;;1.60;0.50;;;;;;;26.49;30.30;95063.78;5054147;28;20028;-28
2021/01/29 13:21:30;;;;;;;5.47;0.77;;;;;;;26.43;30.53;95051.16;5055780;28;20104;-28
2021/01/29 13:23:56;;;;;;;3.83;0.82;;;;;;;26.53;30.41;95049.44;5052063;28;20456;-27
2021/01/29 13:26:39;;;;;;;5.43;0.52;;;;;;;26.58;30.36;95051.69;5057715;28;20028;-28
2021/01/29 13:29:28;;;;;;;1.83;0.52;;;;;;;26.60;30.18;95042.72;5073322;28;20039;-27
2021/01/29 13:31:56;;;;;;;6.50;0.85;;;;;;;26.67;30.38;95048.28;5057477;28;20130;-27
2021/01/29 13:34:25;;;;;;;4.47;0.47;;;;;;;26.70;30.23;95052.44;5070954;28;20459;-29
2021/01/29 13:37:08;;;;;;;5.45;0.57;;;;;;;26.77;30.28;95052.75;5069451;28;20037;-29
2021/01/29 13:39:36;;;;;;;6.70;1.38;;;;;;;26.82;30.33;95054.03;5034175;28;20041;-27
2021/01/29 13:42:13;;;;;;;9.43;1.35;;;;;;;26.83;30.36;95050.44;5034574;28;20033;-26
2021/01/29 13:44:52;;;;;;;4.57;0.65;;;;;;;26.90;30.28;95049.91;5038491;28;20108;-28
2021/01/29 13:47:28;;;;;;;3.45;0.60;;;;;;;26.93;30.13;95047.00;5040581;28;21012;-28
2021/01/29 13:49:54;;;;;;;2.67;0.50;;;;;;;26.95;30.10;95045.09;5044729;28;20136;-30
2021/01/29 13:52:26;;;;;;;7.32;0.47;;;;;;;26.97;30.14;95037.94;5037744;28;20116;-28
2021/01/29 13:54:53;;;;;;;14.93;1.05;;;;;;;27.00;30.07;95038.50;5045412;28;20107;-28
2021/01/29 13:57:40;;;;;;;8.88;1.08;;;;;;;27.04;30.15;95043.50;5057260;28;20370;-28
2021/01/29 14:00:13;;;;;;;5.30;0.80;;;;;;;27.05;30.13;95035.47;5055098;28;20039;-28
2021/01/29 14:02:47;;;;;;;5.63;1.00;;;;;;;27.07;30.25;95028.28;5028567;28;20441;-28